createdAt,value
2018-12-05T00:00:24.004Z,81.20
2018-12-05T00:03:28.110Z,83.80
2018-12-05T00:06:32.207Z,84.90
2018-12-05T00:09:36.302Z,82.90
2018-12-05T00:12:40.446Z,79.80
2018-12-05T00:15:44.603Z,79.80
2018-12-05T00:18:48.661Z,79.50
2018-12-05T00:21:52.749Z,79.00
2018-12-05T00:24:56.887Z,81.00
2018-12-05T00:28:00.977Z,84.60
2018-12-05T00:31:05.122Z,84.30
2018-12-05T00:34:09.203Z,80.20
2018-12-05T00:37:13.298Z,77.30
2018-12-05T00:40:17.381Z,77.60
2018-12-05T00:43:21.526Z,77.60
2018-12-05T00:46:25.626Z,79.00
2018-12-05T00:49:29.702Z,76.80
2018-12-05T00:52:33.790Z,76.20
2018-12-05T00:55:37.862Z,74.50
2018-12-05T00:58:41.950Z,74.60
2018-12-05T01:01:46.040Z,74.60
2018-12-05T01:04:50.127Z,74.50
2018-12-05T01:07:54.205Z,74.50
2018-12-05T01:10:58.265Z,74.80
2018-12-05T01:14:02.348Z,74.60
2018-12-05T01:17:06.474Z,75.40
2018-12-05T01:20:10.681Z,75.10
2018-12-05T01:23:14.762Z,76.40
2018-12-05T01:26:18.826Z,77.00
2018-12-05T01:29:22.969Z,77.10
2018-12-05T01:32:27.041Z,76.20
2018-12-05T01:35:31.110Z,75.20
2018-12-05T01:38:35.194Z,75.30
2018-12-05T01:41:39.279Z,74.60
2018-12-05T01:44:43.361Z,74.50
2018-12-05T01:47:47.497Z,74.30
2018-12-05T01:50:51.625Z,74.10
2018-12-05T01:53:55.711Z,74.90
2018-12-05T01:56:59.917Z,75.10
2018-12-05T02:00:06.703Z,74.90
2018-12-05T02:03:10.864Z,74.40
2018-12-05T02:06:15.248Z,74.90
2018-12-05T02:09:19.490Z,73.90
2018-12-05T02:12:23.577Z,74.00
2018-12-05T02:15:27.651Z,74.40
2018-12-05T02:18:31.860Z,74.20
2018-12-05T02:21:35.934Z,74.90
2018-12-05T02:24:40.078Z,75.20
2018-12-05T02:27:44.185Z,74.60
2018-12-05T02:30:48.260Z,74.40
2018-12-05T02:33:52.339Z,75.00
2018-12-05T02:40:09.966Z,77.00
2018-12-05T02:43:14.087Z,76.90
2018-12-05T02:46:18.203Z,77.40
2018-12-05T02:49:22.344Z,77.40
2018-12-05T02:52:26.517Z,77.10
2018-12-05T02:55:30.658Z,77.30
2018-12-05T02:58:34.729Z,76.80
2018-12-05T03:01:38.807Z,77.30
2018-12-05T03:04:42.881Z,77.00
2018-12-05T03:07:46.943Z,76.70
2018-12-05T03:10:51.014Z,76.30
2018-12-05T03:13:55.098Z,76.60
2018-12-05T03:16:59.260Z,75.40
2018-12-05T03:20:05.376Z,75.70
2018-12-05T03:23:09.712Z,75.70
2018-12-05T03:26:13.850Z,75.10
2018-12-05T03:29:17.935Z,75.20
2018-12-05T03:32:22.014Z,75.90
2018-12-05T03:35:40.854Z,75.70
2018-12-05T03:38:44.979Z,76.60
2018-12-05T03:41:49.066Z,76.90
2018-12-05T03:44:53.196Z,77.90
2018-12-05T03:47:57.417Z,81.00
2018-12-05T03:51:01.635Z,77.50
2018-12-05T03:54:05.842Z,78.30
2018-12-05T03:57:09.933Z,80.80
2018-12-05T04:00:14.082Z,80.60
2018-12-05T04:03:18.197Z,81.30
2018-12-05T04:06:22.312Z,80.90
2018-12-05T04:09:26.411Z,79.00
2018-12-05T04:12:30.537Z,75.00
2018-12-05T04:15:34.685Z,74.20
2018-12-05T04:18:38.846Z,74.40
2018-12-05T04:21:43.046Z,75.40
2018-12-05T04:24:47.269Z,76.70
2018-12-05T04:27:51.394Z,76.40
2018-12-05T04:30:55.639Z,78.40
2018-12-05T04:34:01.811Z,78.30
2018-12-05T04:37:05.937Z,76.00
2018-12-05T04:40:10.074Z,76.00
2018-12-05T04:43:14.163Z,76.80
2018-12-05T04:46:18.246Z,76.90
2018-12-05T04:49:22.322Z,74.00
2018-12-05T04:52:26.389Z,75.70
2018-12-05T04:55:30.527Z,76.30
2018-12-05T04:58:34.649Z,76.10
2018-12-05T05:01:38.783Z,75.80
2018-12-05T05:04:42.917Z,77.70
2018-12-05T05:07:46.974Z,78.30
2018-12-05T05:10:51.050Z,76.80
2018-12-05T05:13:55.190Z,74.60
2018-12-05T05:16:59.281Z,75.40
2018-12-05T05:20:04.229Z,74.10
2018-12-05T05:23:08.285Z,73.80
2018-12-05T05:26:12.571Z,74.00
2018-12-05T05:29:16.712Z,74.50
2018-12-05T05:32:20.925Z,74.80
2018-12-05T05:35:25.049Z,75.40
2018-12-05T05:38:29.134Z,75.30
2018-12-05T05:41:33.298Z,75.40
2018-12-05T05:44:37.397Z,75.10
2018-12-05T05:47:41.513Z,75.30
2018-12-05T05:50:45.585Z,75.20
2018-12-05T05:53:49.669Z,74.70
2018-12-05T05:56:53.746Z,74.90
2018-12-05T05:59:57.884Z,74.40
2018-12-05T06:03:02.026Z,75.70
2018-12-05T06:06:06.082Z,75.00
2018-12-05T06:09:10.224Z,74.70
2018-12-05T06:12:14.285Z,75.10
2018-12-05T06:15:18.450Z,75.30
2018-12-05T06:18:22.692Z,75.20
2018-12-05T06:21:26.772Z,74.20
2018-12-05T06:24:30.966Z,74.30
2018-12-05T06:27:35.128Z,73.80
2018-12-05T06:30:39.248Z,73.80
2018-12-05T06:33:43.318Z,74.70
2018-12-05T06:36:47.481Z,74.10
2018-12-05T06:39:51.565Z,74.50
2018-12-05T06:42:55.626Z,74.00
2018-12-05T06:45:59.729Z,74.10
2018-12-05T06:49:03.939Z,74.20
2018-12-05T06:52:08.015Z,74.40
2018-12-05T06:55:12.150Z,74.00
2018-12-05T06:58:16.208Z,74.00
2018-12-05T07:01:20.410Z,73.80
2018-12-05T07:04:24.479Z,73.80
2018-12-05T07:07:29.010Z,73.30
2018-12-05T07:10:33.065Z,73.10
2018-12-05T07:13:37.137Z,73.70
2018-12-05T07:16:41.233Z,73.90
2018-12-05T07:19:45.302Z,73.80
2018-12-05T07:22:49.369Z,73.50
2018-12-05T07:25:53.539Z,73.20
2018-12-05T07:28:57.614Z,73.10
2018-12-05T07:32:01.689Z,73.50
2018-12-05T07:35:06.686Z,73.70
2018-12-05T07:38:10.757Z,73.30
2018-12-05T07:41:14.837Z,71.80
2018-12-05T07:44:18.946Z,71.70
2018-12-05T07:47:23.067Z,72.10
2018-12-05T07:50:27.153Z,72.80
2018-12-05T07:53:31.285Z,72.90
2018-12-05T07:56:35.358Z,73.60
2018-12-05T07:59:39.433Z,71.30
2018-12-05T08:02:43.545Z,71.50
2018-12-05T08:05:47.758Z,71.10
2018-12-05T08:08:51.855Z,70.60
2018-12-05T08:11:55.930Z,70.90
2018-12-05T08:14:59.985Z,72.60
2018-12-05T08:18:04.335Z,73.30
2018-12-05T08:21:08.518Z,72.30
2018-12-05T08:24:12.590Z,72.50
2018-12-05T08:27:16.670Z,71.80
2018-12-05T08:30:20.753Z,71.20
2018-12-05T08:33:24.902Z,70.80
2018-12-05T08:36:29.133Z,71.60
2018-12-05T08:39:33.261Z,71.70
2018-12-05T08:42:37.329Z,71.40
2018-12-05T08:45:41.490Z,73.10
2018-12-05T08:48:45.575Z,73.60
2018-12-05T08:51:49.637Z,72.20
2018-12-05T08:54:53.820Z,72.30
2018-12-05T08:57:57.893Z,72.30
2018-12-05T09:01:01.969Z,71.90
2018-12-05T09:04:06.237Z,71.50
2018-12-05T09:07:10.310Z,71.60
2018-12-05T09:10:14.406Z,71.00
2018-12-05T09:13:18.538Z,70.60
2018-12-05T09:16:22.646Z,70.90
2018-12-05T09:19:27.883Z,70.30
2018-12-05T09:22:31.945Z,70.20
2018-12-05T09:25:36.092Z,69.90
2018-12-05T09:28:40.242Z,69.90
2018-12-05T09:31:44.326Z,70.00
2018-12-05T09:34:48.428Z,70.00
2018-12-05T09:37:52.575Z,69.90
2018-12-05T09:40:56.681Z,70.00
2018-12-05T09:44:00.755Z,69.20
2018-12-05T09:47:04.919Z,68.30
2018-12-05T09:50:09.201Z,69.00
2018-12-05T09:53:13.273Z,68.30
2018-12-05T09:56:17.370Z,67.60
2018-12-05T09:59:21.590Z,67.50
2018-12-05T10:02:25.696Z,67.10
2018-12-05T10:05:29.768Z,67.60
2018-12-05T10:08:33.842Z,67.70
2018-12-05T10:11:37.982Z,67.80
2018-12-05T10:14:42.073Z,67.10
2018-12-05T10:17:46.169Z,69.00
2018-12-05T10:20:55.931Z,68.50
2018-12-05T10:23:56.319Z,68.10
2018-12-05T10:27:00.466Z,67.90
2018-12-05T10:30:07.049Z,69.00
2018-12-05T10:33:11.137Z,70.00
2018-12-05T10:36:15.278Z,69.50
2018-12-05T10:39:19.365Z,69.30
2018-12-05T10:42:24.541Z,68.70
2018-12-05T10:45:28.751Z,67.30
2018-12-05T10:48:32.897Z,67.50
2018-12-05T10:51:36.983Z,66.90
2018-12-05T10:54:41.606Z,65.50
2018-12-05T10:57:45.688Z,65.90
2018-12-05T11:00:55.445Z,64.80
2018-12-05T11:07:34.499Z,66.00
2018-12-05T11:10:44.069Z,64.70
2018-12-05T11:13:53.666Z,65.90
2018-12-05T11:24:15.209Z,65.10
2018-12-05T11:27:19.283Z,64.60
2018-12-05T11:30:23.577Z,64.40
2018-12-05T11:33:27.748Z,65.40
2018-12-05T11:36:31.951Z,66.30
2018-12-05T11:39:36.062Z,66.10
2018-12-05T11:42:40.189Z,65.50
2018-12-05T11:45:44.293Z,66.60
2018-12-05T11:48:48.407Z,65.10
2018-12-05T11:51:52.917Z,64.90
2018-12-05T11:54:57.169Z,65.10
2018-12-05T11:58:01.225Z,64.80
2018-12-05T12:01:05.411Z,64.00
2018-12-05T12:04:09.514Z,64.80
2018-12-05T12:07:13.582Z,64.30
2018-12-05T12:13:39.206Z,64.20
2018-12-05T12:16:43.306Z,62.00
2018-12-05T12:19:47.385Z,55.90
2018-12-05T12:22:51.518Z,47.00
2018-12-05T12:25:55.631Z,47.80
2018-12-05T12:28:59.770Z,49.90
2018-12-05T12:32:03.930Z,52.90
2018-12-05T12:35:08.110Z,56.40
2018-12-05T12:38:12.279Z,58.60
2018-12-05T12:41:16.411Z,60.60
2018-12-05T12:44:20.480Z,61.60
2018-12-05T12:47:24.669Z,61.30
2018-12-05T12:50:28.730Z,61.80
2018-12-05T12:53:32.815Z,62.30
2018-12-05T12:56:36.882Z,62.50
2018-12-05T12:59:40.981Z,62.30
2018-12-05T13:02:45.061Z,62.90
2018-12-05T13:05:49.243Z,63.70
2018-12-05T13:08:53.361Z,64.20
2018-12-05T13:11:57.441Z,65.00
2018-12-05T13:15:01.589Z,65.90
2018-12-05T13:18:05.805Z,65.90
2018-12-05T13:21:09.893Z,66.30
2018-12-05T13:24:14.058Z,65.90
2018-12-05T13:27:18.165Z,65.40
2018-12-05T13:30:22.268Z,65.10
2018-12-05T13:33:26.417Z,65.10
2018-12-05T13:36:30.483Z,64.90
2018-12-05T13:39:34.580Z,64.90
2018-12-05T13:42:38.697Z,65.40
2018-12-05T13:45:42.850Z,64.50
2018-12-05T13:48:46.942Z,65.00
2018-12-05T13:51:51.014Z,65.30
2018-12-05T13:54:55.108Z,66.00
2018-12-05T13:57:59.203Z,67.10
2018-12-05T14:01:03.335Z,67.60
2018-12-05T14:04:07.525Z,67.50
2018-12-05T14:07:11.593Z,67.80
2018-12-05T14:10:15.681Z,67.80
2018-12-05T14:13:19.748Z,68.70
2018-12-05T14:16:23.910Z,67.80
2018-12-05T14:19:28.015Z,67.70
2018-12-05T14:22:32.096Z,67.70
2018-12-05T14:25:36.183Z,67.50
2018-12-05T14:28:40.251Z,67.40
2018-12-05T14:31:44.383Z,67.50
2018-12-05T14:34:48.494Z,68.10
2018-12-05T14:37:52.614Z,67.30
2018-12-05T14:40:56.730Z,67.30
2018-12-05T14:44:00.799Z,67.70
2018-12-05T14:47:05.066Z,67.90
2018-12-05T14:50:09.384Z,67.60
2018-12-05T14:53:13.466Z,67.90
2018-12-05T14:56:17.608Z,67.80
2018-12-05T14:59:21.692Z,67.60
2018-12-05T15:02:25.834Z,67.80
2018-12-05T15:05:29.900Z,68.60
2018-12-05T15:08:33.986Z,68.70
2018-12-05T15:11:38.201Z,68.70
2018-12-05T15:14:42.345Z,68.90
2018-12-05T15:17:46.487Z,68.40
2018-12-05T15:20:50.585Z,69.60
2018-12-05T15:23:55.783Z,69.60
2018-12-05T15:26:59.913Z,69.10
2018-12-05T15:30:04.941Z,69.00
2018-12-05T15:33:09.055Z,69.20
2018-12-05T15:36:13.126Z,69.50
2018-12-05T15:39:17.216Z,69.10
2018-12-05T15:42:21.310Z,69.00
2018-12-05T15:45:25.419Z,69.00
2018-12-05T15:48:29.494Z,69.90
2018-12-05T15:51:33.648Z,70.50
2018-12-05T15:54:37.750Z,69.90
2018-12-05T15:57:41.941Z,69.20
2018-12-05T16:00:46.029Z,69.80
2018-12-05T16:03:50.131Z,70.10
2018-12-05T16:06:54.331Z,70.40
2018-12-05T16:09:58.482Z,70.60
2018-12-05T16:13:02.547Z,70.30
2018-12-05T16:16:06.682Z,71.10
2018-12-05T16:19:10.762Z,70.50
2018-12-05T16:22:14.858Z,71.00
2018-12-05T16:25:19.095Z,71.40
2018-12-05T16:31:43.802Z,71.10
2018-12-05T16:34:47.870Z,70.60
2018-12-05T16:37:52.023Z,70.40
2018-12-05T16:40:56.109Z,70.30
2018-12-05T16:44:00.553Z,70.40
2018-12-05T16:50:49.360Z,70.70
2018-12-05T16:53:53.440Z,70.60
2018-12-05T16:56:57.533Z,70.40
2018-12-05T17:03:49.337Z,70.90
2018-12-05T17:06:53.591Z,70.70
2018-12-05T17:09:57.666Z,70.20
2018-12-05T17:13:01.845Z,70.00
2018-12-05T17:16:06.067Z,69.90
2018-12-05T17:19:10.190Z,70.00
2018-12-05T17:22:14.285Z,69.80
2018-12-05T17:25:18.382Z,69.80
2018-12-05T17:28:22.490Z,69.50
2018-12-05T17:31:26.578Z,69.90
2018-12-05T17:34:30.678Z,70.00
2018-12-05T17:37:34.750Z,70.90
2018-12-05T17:40:38.910Z,70.90
2018-12-05T17:43:43.069Z,71.10
2018-12-05T17:46:47.151Z,70.70
2018-12-05T17:49:51.227Z,70.20
2018-12-05T17:52:55.310Z,70.70
2018-12-05T17:55:59.433Z,69.80
2018-12-05T17:59:03.643Z,70.60
2018-12-05T18:02:07.721Z,70.70
2018-12-05T18:05:11.813Z,70.40
2018-12-05T18:08:16.224Z,70.60
2018-12-05T18:11:20.573Z,70.60
2018-12-05T18:14:24.717Z,71.00
2018-12-05T18:17:28.809Z,71.70
2018-12-05T18:20:33.049Z,72.30
2018-12-05T18:23:37.123Z,72.10
2018-12-05T18:26:41.213Z,72.40
2018-12-05T18:29:45.289Z,72.60
2018-12-05T18:32:49.387Z,72.50
2018-12-05T18:35:53.500Z,72.20
2018-12-05T18:38:57.562Z,72.20
2018-12-05T18:42:01.667Z,72.50
2018-12-05T18:45:07.058Z,72.00
2018-12-05T18:48:11.220Z,71.90
2018-12-05T18:51:15.311Z,72.70
2018-12-05T18:54:19.385Z,72.60
2018-12-05T18:57:23.498Z,72.70
2018-12-05T19:00:27.563Z,72.80
2018-12-05T19:03:48.466Z,71.80
2018-12-05T19:06:52.597Z,72.50
2018-12-05T19:09:56.802Z,73.00
2018-12-05T19:13:00.946Z,72.20
2018-12-05T19:16:05.016Z,72.30
2018-12-05T19:19:09.106Z,73.30
2018-12-05T19:22:13.220Z,73.10
2018-12-05T19:25:17.298Z,72.80
2018-12-05T19:28:21.386Z,73.20
2018-12-05T19:31:25.532Z,72.90
2018-12-05T19:34:29.614Z,71.90
2018-12-05T19:37:33.708Z,72.90
2018-12-05T19:40:37.842Z,72.90
2018-12-05T19:43:41.951Z,73.20
2018-12-05T19:46:46.009Z,72.80
2018-12-05T19:49:50.089Z,72.60
2018-12-05T19:52:54.214Z,71.90
2018-12-05T19:55:58.385Z,72.60
2018-12-05T19:59:02.485Z,72.10
2018-12-05T20:02:06.570Z,72.20
2018-12-05T20:05:10.692Z,71.80
2018-12-05T20:08:14.733Z,71.50
2018-12-05T20:11:18.822Z,72.00
2018-12-05T20:14:28.776Z,72.60
2018-12-05T20:17:32.888Z,72.50
2018-12-05T20:20:36.970Z,72.60
2018-12-05T20:23:41.119Z,72.70
2018-12-05T20:26:45.214Z,73.00
2018-12-05T20:29:49.310Z,72.50
2018-12-05T20:32:53.398Z,72.20
2018-12-05T20:35:57.502Z,72.40
2018-12-05T20:39:01.586Z,72.70
2018-12-05T20:42:06.859Z,72.30
2018-12-05T20:45:11.071Z,72.10
2018-12-05T20:48:16.143Z,71.90
2018-12-05T20:51:20.259Z,71.80
2018-12-05T20:54:24.384Z,71.60
2018-12-05T20:57:28.553Z,71.80
2018-12-05T21:00:32.626Z,72.30
2018-12-05T21:03:36.746Z,71.40
2018-12-05T21:06:40.914Z,71.40
2018-12-05T21:09:44.992Z,71.30
2018-12-05T21:12:49.177Z,71.10
2018-12-05T21:15:53.346Z,70.60
2018-12-05T21:18:57.455Z,70.20
2018-12-05T21:22:01.529Z,70.60
2018-12-05T21:25:05.867Z,70.90
2018-12-05T21:28:09.949Z,70.90
2018-12-05T21:31:14.014Z,71.00
2018-12-05T21:34:18.120Z,70.70
2018-12-05T21:37:22.271Z,70.20
2018-12-05T21:40:26.386Z,71.00
2018-12-05T21:43:30.489Z,71.70
2018-12-05T21:46:34.583Z,71.90
2018-12-05T21:49:38.675Z,71.70
2018-12-05T21:52:42.769Z,71.80
2018-12-05T21:55:46.885Z,71.50
2018-12-05T21:58:50.946Z,71.70
2018-12-05T22:01:55.067Z,71.10
2018-12-05T22:04:59.164Z,71.00
2018-12-05T22:08:03.424Z,71.10
2018-12-05T22:11:07.510Z,71.00
2018-12-05T22:14:11.586Z,71.60
2018-12-05T22:17:15.672Z,71.50
2018-12-05T22:20:19.749Z,71.50
2018-12-05T22:23:23.849Z,71.60
2018-12-05T22:26:27.951Z,71.90
2018-12-05T22:29:32.095Z,71.70
2018-12-05T22:32:36.195Z,71.80
2018-12-05T22:35:40.273Z,72.00
2018-12-05T22:38:44.369Z,71.20
2018-12-05T22:41:48.453Z,70.90
2018-12-05T22:44:52.521Z,71.50
2018-12-05T22:47:56.695Z,72.00
2018-12-05T22:51:00.774Z,72.40
2018-12-05T22:54:04.983Z,72.60
2018-12-05T22:57:13.815Z,73.70
2018-12-05T23:00:22.497Z,73.60
2018-12-05T23:03:28.565Z,71.70
2018-12-05T23:06:33.629Z,72.10
2018-12-05T23:09:40.553Z,71.00
2018-12-05T23:12:44.627Z,71.90
2018-12-05T23:15:48.789Z,71.80
2018-12-05T23:18:52.874Z,72.00
2018-12-05T23:21:57.078Z,71.90
2018-12-05T23:25:01.161Z,72.20
2018-12-05T23:28:05.252Z,71.80
2018-12-05T23:31:09.341Z,72.50
2018-12-05T23:34:13.449Z,72.00
2018-12-05T23:37:17.524Z,73.50
2018-12-05T23:40:21.590Z,73.50
2018-12-05T23:43:25.669Z,72.70
2018-12-05T23:46:29.760Z,72.70
2018-12-05T23:49:33.846Z,74.30
2018-12-05T23:52:37.918Z,74.70
2018-12-05T23:55:42.013Z,74.10
2018-12-05T23:58:47.922Z,73.40
